sensor_id;sensor_type;location;lat;lon;timestamp;pressure;altitude;pressure_sealevel;temperature;humidity
61014;BME280;46899;47.542;19.082;2023-07-29T00:02:21;99984.00;;;18.87;100.00
61014;BME280;46899;47.542;19.082;2023-07-29T00:05:25;99983.41;;;18.84;100.00
61014;BME280;46899;47.542;19.082;2023-07-29T00:08:27;99990.47;;;18.83;100.00
61014;BME280;46899;47.542;19.082;2023-07-29T00:11:30;99984.47;;;18.81;100.00
61014;BME280;46899;47.542;19.082;2023-07-29T00:14:34;99989.84;;;18.80;100.00
61014;BME280;46899;47.542;19.082;2023-07-29T00:17:37;99988.25;;;18.77;100.00
61014;BME280;46899;47.542;19.082;2023-07-29T00:20:40;99988.69;;;18.84;100.00
61014;BME280;46899;47.542;19.082;2023-07-29T00:23:42;99984.91;;;18.75;100.00
61014;BME280;46899;47.542;19.082;2023-07-29T00:26:45;99983.84;;;18.78;100.00
61014;BME280;46899;47.542;19.082;2023-07-29T00:29:48;99986.22;;;18.70;100.00
61014;BME280;46899;47.542;19.082;2023-07-29T00:32:50;99985.34;;;18.58;100.00
61014;BME280;46899;47.542;19.082;2023-07-29T00:35:53;99981.00;;;18.57;100.00
61014;BME280;46899;47.542;19.082;2023-07-29T00:38:55;99982.53;;;18.49;100.00
61014;BME280;46899;47.542;19.082;2023-07-29T00:41:59;99978.00;;;18.38;100.00
61014;BME280;46899;47.542;19.082;2023-07-29T00:45:02;99978.22;;;18.35;100.00
61014;BME280;46899;47.542;19.082;2023-07-29T00:48:05;99974.34;;;18.28;100.00
61014;BME280;46899;47.542;19.082;2023-07-29T00:51:10;99976.50;;;18.23;100.00
61014;BME280;46899;47.542;19.082;2023-07-29T00:54:13;99974.81;;;18.22;100.00
61014;BME280;46899;47.542;19.082;2023-07-29T00:57:15;99980.59;;;18.27;100.00
61014;BME280;46899;47.542;19.082;2023-07-29T01:00:19;99975.81;;;18.32;100.00
61014;BME280;46899;47.542;19.082;2023-07-29T01:03:21;99972.91;;;18.24;100.00
61014;BME280;46899;47.542;19.082;2023-07-29T01:13:06;99960.03;;;17.96;100.00
61014;BME280;46899;47.542;19.082;2023-07-29T01:16:20;99966.22;;;17.95;100.00
61014;BME280;46899;47.542;19.082;2023-07-29T01:19:34;99971.00;;;17.90;100.00
61014;BME280;46899;47.542;19.082;2023-07-29T01:22:42;99970.50;;;17.85;100.00
61014;BME280;46899;47.542;19.082;2023-07-29T01:25:46;99971.44;;;17.84;100.00
61014;BME280;46899;47.542;19.082;2023-07-29T01:28:48;99964.38;;;17.84;100.00
61014;BME280;46899;47.542;19.082;2023-07-29T01:31:51;99953.22;;;17.81;100.00
61014;BME280;46899;47.542;19.082;2023-07-29T01:35:00;99964.06;;;17.76;100.00
61014;BME280;46899;47.542;19.082;2023-07-29T01:38:05;99967.03;;;17.71;100.00
61014;BME280;46899;47.542;19.082;2023-07-29T01:41:09;99964.72;;;17.67;100.00
61014;BME280;46899;47.542;19.082;2023-07-29T01:44:12;99970.63;;;17.70;100.00
61014;BME280;46899;47.542;19.082;2023-07-29T01:47:14;99980.09;;;17.73;100.00
61014;BME280;46899;47.542;19.082;2023-07-29T01:50:17;99976.41;;;17.75;100.00
61014;BME280;46899;47.542;19.082;2023-07-29T01:53:20;99972.72;;;17.78;100.00
61014;BME280;46899;47.542;19.082;2023-07-29T01:56:23;99965.56;;;17.67;100.00
61014;BME280;46899;47.542;19.082;2023-07-29T01:59:26;99965.25;;;17.59;100.00
61014;BME280;46899;47.542;19.082;2023-07-29T02:02:29;99963.78;;;17.55;100.00
61014;BME280;46899;47.542;19.082;2023-07-29T02:05:32;99970.94;;;17.53;100.00
61014;BME280;46899;47.542;19.082;2023-07-29T02:08:35;99972.66;;;17.54;100.00
61014;BME280;46899;47.542;19.082;2023-07-29T02:11:38;99968.44;;;17.52;100.00
61014;BME280;46899;47.542;19.082;2023-07-29T02:14:40;99978.28;;;17.48;100.00
61014;BME280;46899;47.542;19.082;2023-07-29T02:17:43;99971.44;;;17.46;100.00
61014;BME280;46899;47.542;19.082;2023-07-29T02:20:46;99973.22;;;17.45;100.00
61014;BME280;46899;47.542;19.082;2023-07-29T02:23:52;99969.25;;;17.40;100.00
61014;BME280;46899;47.542;19.082;2023-07-29T02:26:55;99965.03;;;17.37;100.00
61014;BME280;46899;47.542;19.082;2023-07-29T02:29:58;99970.41;;;17.36;100.00
61014;BME280;46899;47.542;19.082;2023-07-29T02:33:00;99987.25;;;17.33;100.00
61014;BME280;46899;47.542;19.082;2023-07-29T02:36:04;99988.38;;;17.29;100.00
61014;BME280;46899;47.542;19.082;2023-07-29T02:39:07;99978.09;;;17.26;100.00
61014;BME280;46899;47.542;19.082;2023-07-29T02:42:10;99980.63;;;17.28;100.00
61014;BME280;46899;47.542;19.082;2023-07-29T02:45:12;99978.91;;;17.27;100.00
61014;BME280;46899;47.542;19.082;2023-07-29T02:48:15;99972.91;;;17.25;100.00
61014;BME280;46899;47.542;19.082;2023-07-29T02:51:17;99979.16;;;17.24;100.00
61014;BME280;46899;47.542;19.082;2023-07-29T02:54:20;99983.75;;;17.20;100.00
61014;BME280;46899;47.542;19.082;2023-07-29T02:57:23;99987.13;;;17.22;100.00
61014;BME280;46899;47.542;19.082;2023-07-29T03:00:26;99988.09;;;17.21;100.00
61014;BME280;46899;47.542;19.082;2023-07-29T03:03:29;99979.97;;;17.24;100.00
61014;BME280;46899;47.542;19.082;2023-07-29T03:06:32;99982.28;;;17.16;100.00
61014;BME280;46899;47.542;19.082;2023-07-29T03:09:34;99981.94;;;17.08;100.00
61014;BME280;46899;47.542;19.082;2023-07-29T03:12:37;99988.38;;;17.04;100.00
61014;BME280;46899;47.542;19.082;2023-07-29T03:15:40;99987.53;;;17.03;100.00
61014;BME280;46899;47.542;19.082;2023-07-29T03:18:43;99985.84;;;17.02;100.00
61014;BME280;46899;47.542;19.082;2023-07-29T03:21:45;99989.31;;;17.03;100.00
61014;BME280;46899;47.542;19.082;2023-07-29T03:24:48;99988.56;;;17.01;100.00
61014;BME280;46899;47.542;19.082;2023-07-29T03:27:51;99997.41;;;17.00;100.00
61014;BME280;46899;47.542;19.082;2023-07-29T03:30:57;99991.31;;;16.99;100.00
61014;BME280;46899;47.542;19.082;2023-07-29T03:34:00;99992.16;;;17.00;100.00
61014;BME280;46899;47.542;19.082;2023-07-29T03:37:02;99987.72;;;17.00;100.00
61014;BME280;46899;47.542;19.082;2023-07-29T03:40:05;99991.44;;;16.98;100.00
61014;BME280;46899;47.542;19.082;2023-07-29T03:43:09;99994.06;;;16.98;100.00
61014;BME280;46899;47.542;19.082;2023-07-29T03:46:11;99993.09;;;16.99;100.00
61014;BME280;46899;47.542;19.082;2023-07-29T03:49:16;99993.75;;;17.02;100.00
61014;BME280;46899;47.542;19.082;2023-07-29T03:52:19;99992.78;;;17.03;100.00
61014;BME280;46899;47.542;19.082;2023-07-29T03:55:22;99992.78;;;17.03;100.00
61014;BME280;46899;47.542;19.082;2023-07-29T03:58:24;99991.53;;;17.09;100.00
61014;BME280;46899;47.542;19.082;2023-07-29T04:01:27;99998.69;;;17.20;100.00
61014;BME280;46899;47.542;19.082;2023-07-29T04:04:30;100003.63;;;17.24;100.00
61014;BME280;46899;47.542;19.082;2023-07-29T04:07:33;100006.47;;;17.34;100.00
61014;BME280;46899;47.542;19.082;2023-07-29T04:10:35;100008.19;;;17.47;100.00
61014;BME280;46899;47.542;19.082;2023-07-29T04:13:39;100011.75;;;17.46;100.00
61014;BME280;46899;47.542;19.082;2023-07-29T04:16:42;100006.16;;;17.51;100.00
61014;BME280;46899;47.542;19.082;2023-07-29T04:19:45;100001.59;;;17.54;100.00
61014;BME280;46899;47.542;19.082;2023-07-29T04:22:48;100007.25;;;17.61;100.00
61014;BME280;46899;47.542;19.082;2023-07-29T04:25:50;100010.72;;;17.74;100.00
61014;BME280;46899;47.542;19.082;2023-07-29T04:28:54;100006.06;;;17.90;100.00
61014;BME280;46899;47.542;19.082;2023-07-29T04:31:56;100000.03;;;18.13;100.00
61014;BME280;46899;47.542;19.082;2023-07-29T04:34:59;100001.50;;;18.41;100.00
61014;BME280;46899;47.542;19.082;2023-07-29T04:38:02;100006.47;;;18.69;100.00
61014;BME280;46899;47.542;19.082;2023-07-29T04:41:04;100009.66;;;18.96;100.00
61014;BME280;46899;47.542;19.082;2023-07-29T04:44:09;100010.44;;;19.09;100.00
61014;BME280;46899;47.542;19.082;2023-07-29T04:47:11;100016.25;;;19.26;100.00
61014;BME280;46899;47.542;19.082;2023-07-29T04:50:14;100012.47;;;19.52;100.00
61014;BME280;46899;47.542;19.082;2023-07-29T04:53:17;100013.06;;;19.55;100.00
61014;BME280;46899;47.542;19.082;2023-07-29T04:56:19;100008.50;;;19.57;100.00
61014;BME280;46899;47.542;19.082;2023-07-29T04:59:21;99999.78;;;19.57;100.00
61014;BME280;46899;47.542;19.082;2023-07-29T05:02:24;100004.06;;;19.47;100.00
61014;BME280;46899;47.542;19.082;2023-07-29T05:05:27;100018.84;;;19.49;100.00
61014;BME280;46899;47.542;19.082;2023-07-29T05:08:30;100020.41;;;19.52;100.00
61014;BME280;46899;47.542;19.082;2023-07-29T05:11:32;100021.13;;;19.76;100.00
61014;BME280;46899;47.542;19.082;2023-07-29T05:14:35;100013.56;;;20.16;100.00
61014;BME280;46899;47.542;19.082;2023-07-29T05:17:37;100011.94;;;20.58;100.00
61014;BME280;46899;47.542;19.082;2023-07-29T05:20:40;100026.87;;;20.79;100.00
61014;BME280;46899;47.542;19.082;2023-07-29T05:23:43;100026.91;;;21.00;100.00
61014;BME280;46899;47.542;19.082;2023-07-29T05:26:45;100027.75;;;21.00;100.00
61014;BME280;46899;47.542;19.082;2023-07-29T05:29:48;100035.34;;;21.05;100.00
61014;BME280;46899;47.542;19.082;2023-07-29T05:32:50;100034.88;;;21.21;100.00
61014;BME280;46899;47.542;19.082;2023-07-29T05:35:53;100038.38;;;21.21;100.00
61014;BME280;46899;47.542;19.082;2023-07-29T05:38:56;100036.81;;;21.39;100.00
61014;BME280;46899;47.542;19.082;2023-07-29T05:41:59;100046.03;;;21.65;100.00
61014;BME280;46899;47.542;19.082;2023-07-29T05:45:04;100052.62;;;21.92;100.00
61014;BME280;46899;47.542;19.082;2023-07-29T05:48:07;100058.03;;;22.20;100.00
61014;BME280;46899;47.542;19.082;2023-07-29T05:51:10;100061.47;;;22.41;100.00
61014;BME280;46899;47.542;19.082;2023-07-29T05:54:12;100062.38;;;22.71;100.00
61014;BME280;46899;47.542;19.082;2023-07-29T05:57:14;100065.34;;;22.77;100.00
61014;BME280;46899;47.542;19.082;2023-07-29T06:00:17;100064.75;;;22.83;100.00
61014;BME280;46899;47.542;19.082;2023-07-29T06:03:20;100072.75;;;23.02;100.00
61014;BME280;46899;47.542;19.082;2023-07-29T06:06:25;100077.19;;;23.31;100.00
61014;BME280;46899;47.542;19.082;2023-07-29T06:09:29;100085.44;;;23.28;100.00
61014;BME280;46899;47.542;19.082;2023-07-29T06:12:31;100092.16;;;23.32;100.00
61014;BME280;46899;47.542;19.082;2023-07-29T06:15:34;100098.75;;;23.47;98.27
61014;BME280;46899;47.542;19.082;2023-07-29T06:18:36;100097.63;;;23.40;98.90
61014;BME280;46899;47.542;19.082;2023-07-29T06:21:39;100099.97;;;23.33;99.28
61014;BME280;46899;47.542;19.082;2023-07-29T06:24:41;100097.09;;;23.46;100.00
61014;BME280;46899;47.542;19.082;2023-07-29T06:27:44;100096.50;;;23.52;100.00
61014;BME280;46899;47.542;19.082;2023-07-29T06:30:47;100097.19;;;23.63;100.00
61014;BME280;46899;47.542;19.082;2023-07-29T06:33:49;100104.84;;;23.86;100.00
61014;BME280;46899;47.542;19.082;2023-07-29T06:36:52;100100.91;;;23.90;100.00
61014;BME280;46899;47.542;19.082;2023-07-29T06:39:54;100108.41;;;24.13;100.00
61014;BME280;46899;47.542;19.082;2023-07-29T06:42:57;100113.06;;;24.38;95.58
61014;BME280;46899;47.542;19.082;2023-07-29T06:45:59;100099.47;;;24.41;93.48
61014;BME280;46899;47.542;19.082;2023-07-29T06:49:02;100107.06;;;24.36;83.71
61014;BME280;46899;47.542;19.082;2023-07-29T06:52:04;100098.75;;;24.67;86.53
61014;BME280;46899;47.542;19.082;2023-07-29T06:55:07;100099.47;;;26.26;79.42
61014;BME280;46899;47.542;19.082;2023-07-29T06:58:10;100108.91;;;30.00;56.84
61014;BME280;46899;47.542;19.082;2023-07-29T07:01:13;100104.28;;;34.08;43.02
61014;BME280;46899;47.542;19.082;2023-07-29T07:04:18;100113.78;;;38.19;33.91
61014;BME280;46899;47.542;19.082;2023-07-29T07:07:20;100101.97;;;39.33;31.53
61014;BME280;46899;47.542;19.082;2023-07-29T07:10:23;100097.81;;;39.97;30.39
61014;BME280;46899;47.542;19.082;2023-07-29T07:13:25;100089.44;;;41.43;28.57
61014;BME280;46899;47.542;19.082;2023-07-29T07:16:28;100083.50;;;42.40;28.10
61014;BME280;46899;47.542;19.082;2023-07-29T07:19:32;100086.22;;;43.52;25.98
61014;BME280;46899;47.542;19.082;2023-07-29T07:22:37;100094.31;;;44.28;24.49
61014;BME280;46899;47.542;19.082;2023-07-29T07:25:39;100088.66;;;45.12;22.52
61014;BME280;46899;47.542;19.082;2023-07-29T07:28:42;100094.06;;;44.78;22.66
61014;BME280;46899;47.542;19.082;2023-07-29T07:31:49;100082.88;;;42.95;25.11
61014;BME280;46899;47.542;19.082;2023-07-29T07:34:53;100082.19;;;41.59;27.62
61014;BME280;46899;47.542;19.082;2023-07-29T07:37:55;100073.12;;;40.03;28.23
61014;BME280;46899;47.542;19.082;2023-07-29T07:40:58;100069.03;;;39.68;31.33
61014;BME280;46899;47.542;19.082;2023-07-29T07:44:01;100064.22;;;39.41;29.89
61014;BME280;46899;47.542;19.082;2023-07-29T07:47:03;100071.34;;;39.76;31.20
61014;BME280;46899;47.542;19.082;2023-07-29T07:50:06;100073.50;;;40.77;30.59
61014;BME280;46899;47.542;19.082;2023-07-29T07:53:09;100064.03;;;39.59;29.65
61014;BME280;46899;47.542;19.082;2023-07-29T07:56:11;100064.13;;;40.68;30.10
61014;BME280;46899;47.542;19.082;2023-07-29T07:59:14;100059.81;;;42.76;27.08
61014;BME280;46899;47.542;19.082;2023-07-29T08:02:19;100061.22;;;42.88;24.93
61014;BME280;46899;47.542;19.082;2023-07-29T08:05:23;100054.56;;;42.49;25.57
61014;BME280;46899;47.542;19.082;2023-07-29T08:08:25;100065.13;;;44.47;24.79
61014;BME280;46899;47.542;19.082;2023-07-29T08:11:28;100054.59;;;45.08;23.06
61014;BME280;46899;47.542;19.082;2023-07-29T08:14:31;100054.69;;;43.30;24.52
61014;BME280;46899;47.542;19.082;2023-07-29T08:17:34;100053.03;;;43.19;23.77
61014;BME280;46899;47.542;19.082;2023-07-29T08:20:36;100059.53;;;44.13;22.89
61014;BME280;46899;47.542;19.082;2023-07-29T08:23:39;100047.47;;;43.99;22.48
61014;BME280;46899;47.542;19.082;2023-07-29T08:26:41;100039.28;;;42.78;23.95
61014;BME280;46899;47.542;19.082;2023-07-29T08:29:44;100035.50;;;43.55;23.51
61014;BME280;46899;47.542;19.082;2023-07-29T08:32:46;100048.03;;;43.96;22.98
61014;BME280;46899;47.542;19.082;2023-07-29T08:35:49;100043.56;;;44.21;22.88
61014;BME280;46899;47.542;19.082;2023-07-29T08:38:51;100043.28;;;44.17;23.68
61014;BME280;46899;47.542;19.082;2023-07-29T08:41:58;100036.34;;;43.35;22.65
61014;BME280;46899;47.542;19.082;2023-07-29T08:45:06;100032.09;;;41.85;24.13
61014;BME280;46899;47.542;19.082;2023-07-29T08:48:10;100030.03;;;43.05;24.41
61014;BME280;46899;47.542;19.082;2023-07-29T08:51:13;100033.16;;;44.17;21.30
61014;BME280;46899;47.542;19.082;2023-07-29T08:54:16;100032.06;;;44.13;21.56
61014;BME280;46899;47.542;19.082;2023-07-29T08:57:20;100026.69;;;43.73;21.25
61014;BME280;46899;47.542;19.082;2023-07-29T09:00:22;100027.81;;;43.57;21.38
61014;BME280;46899;47.542;19.082;2023-07-29T09:03:25;100022.34;;;43.07;21.24
61014;BME280;46899;47.542;19.082;2023-07-29T09:06:28;100025.91;;;44.37;20.93
61014;BME280;46899;47.542;19.082;2023-07-29T09:09:30;100025.88;;;44.52;19.84
61014;BME280;46899;47.542;19.082;2023-07-29T09:12:33;100017.84;;;42.45;21.43
61014;BME280;46899;47.542;19.082;2023-07-29T09:15:36;100007.50;;;39.93;23.85
61014;BME280;46899;47.542;19.082;2023-07-29T09:18:39;100020.06;;;40.59;23.36
61014;BME280;46899;47.542;19.082;2023-07-29T09:21:41;100024.00;;;41.64;22.14
61014;BME280;46899;47.542;19.082;2023-07-29T09:24:45;100013.22;;;41.10;22.54
61014;BME280;46899;47.542;19.082;2023-07-29T09:27:47;100007.56;;;38.49;25.96
61014;BME280;46899;47.542;19.082;2023-07-29T09:30:50;99997.69;;;36.32;28.29
61014;BME280;46899;47.542;19.082;2023-07-29T09:33:57;99987.56;;;34.75;33.10
61014;BME280;46899;47.542;19.082;2023-07-29T09:37:00;99984.09;;;33.20;33.49
61014;BME280;46899;47.542;19.082;2023-07-29T09:40:03;99976.44;;;31.83;37.58
61014;BME280;46899;47.542;19.082;2023-07-29T09:43:06;99977.09;;;31.92;38.38
61014;BME280;46899;47.542;19.082;2023-07-29T09:46:08;99978.31;;;31.48;38.17
61014;BME280;46899;47.542;19.082;2023-07-29T09:49:11;99973.81;;;31.62;38.04
61014;BME280;46899;47.542;19.082;2023-07-29T09:52:14;99978.13;;;31.91;38.50
61014;BME280;46899;47.542;19.082;2023-07-29T09:55:18;99966.09;;;31.87;38.88
61014;BME280;46899;47.542;19.082;2023-07-29T09:58:27;99968.47;;;32.03;38.88
61014;BME280;46899;47.542;19.082;2023-07-29T10:01:30;99962.87;;;31.98;35.61
61014;BME280;46899;47.542;19.082;2023-07-29T10:04:33;99968.75;;;31.46;36.82
61014;BME280;46899;47.542;19.082;2023-07-29T10:07:39;99970.81;;;31.44;36.49
61014;BME280;46899;47.542;19.082;2023-07-29T10:10:42;99963.72;;;30.87;36.75
61014;BME280;46899;47.542;19.082;2023-07-29T10:13:44;99965.94;;;30.84;37.72
61014;BME280;46899;47.542;19.082;2023-07-29T10:17:06;99961.84;;;31.09;38.17
61014;BME280;46899;47.542;19.082;2023-07-29T10:20:08;99961.22;;;31.35;36.63
61014;BME280;46899;47.542;19.082;2023-07-29T10:23:12;99958.00;;;31.46;35.72
61014;BME280;46899;47.542;19.082;2023-07-29T10:26:15;99952.50;;;31.33;37.36
61014;BME280;46899;47.542;19.082;2023-07-29T10:29:19;99948.72;;;31.21;37.25
61014;BME280;46899;47.542;19.082;2023-07-29T10:32:24;99947.41;;;31.17;38.28
61014;BME280;46899;47.542;19.082;2023-07-29T10:35:27;99947.03;;;31.47;36.40
61014;BME280;46899;47.542;19.082;2023-07-29T10:38:30;99953.44;;;32.21;36.35
61014;BME280;46899;47.542;19.082;2023-07-29T10:44:54;99944.28;;;32.16;36.49
61014;BME280;46899;47.542;19.082;2023-07-29T10:47:57;99940.75;;;33.02;34.46
61014;BME280;46899;47.542;19.082;2023-07-29T10:54:20;99949.81;;;33.40;33.20
61014;BME280;46899;47.542;19.082;2023-07-29T10:57:33;99942.31;;;33.62;33.78
61014;BME280;46899;47.542;19.082;2023-07-29T11:00:36;99951.50;;;32.89;35.65
61014;BME280;46899;47.542;19.082;2023-07-29T11:03:38;99943.38;;;32.50;36.47
61014;BME280;46899;47.542;19.082;2023-07-29T11:10:03;99945.50;;;32.13;36.84
61014;BME280;46899;47.542;19.082;2023-07-29T11:13:07;99942.72;;;32.48;36.10
61014;BME280;46899;47.542;19.082;2023-07-29T11:16:09;99946.94;;;32.76;37.04
61014;BME280;46899;47.542;19.082;2023-07-29T11:19:12;99950.63;;;32.62;36.61
61014;BME280;46899;47.542;19.082;2023-07-29T11:22:17;99940.19;;;32.26;38.00
61014;BME280;46899;47.542;19.082;2023-07-29T11:25:21;99939.37;;;32.39;38.92
61014;BME280;46899;47.542;19.082;2023-07-29T11:28:24;99942.78;;;32.00;39.01
61014;BME280;46899;47.542;19.082;2023-07-29T11:31:38;99949.00;;;32.01;39.37
61014;BME280;46899;47.542;19.082;2023-07-29T11:34:41;99949.44;;;31.42;39.24
61014;BME280;46899;47.542;19.082;2023-07-29T11:37:45;99933.19;;;31.23;39.38
61014;BME280;46899;47.542;19.082;2023-07-29T11:40:55;99929.16;;;31.40;39.81
61014;BME280;46899;47.542;19.082;2023-07-29T11:43:58;99926.63;;;31.59;38.73
61014;BME280;46899;47.542;19.082;2023-07-29T11:47:00;99929.72;;;31.29;40.49
61014;BME280;46899;47.542;19.082;2023-07-29T11:50:07;99928.50;;;31.31;40.35
61014;BME280;46899;47.542;19.082;2023-07-29T11:53:11;99919.72;;;31.44;39.70
61014;BME280;46899;47.542;19.082;2023-07-29T11:56:18;99914.25;;;31.65;40.15
61014;BME280;46899;47.542;19.082;2023-07-29T11:59:21;99909.37;;;31.95;38.12
61014;BME280;46899;47.542;19.082;2023-07-29T12:02:24;99906.84;;;31.80;38.46
61014;BME280;46899;47.542;19.082;2023-07-29T12:05:28;99897.03;;;31.66;38.47
61014;BME280;46899;47.542;19.082;2023-07-29T12:08:31;99901.91;;;31.90;38.98
61014;BME280;46899;47.542;19.082;2023-07-29T12:11:34;99897.03;;;32.07;39.04
61014;BME280;46899;47.542;19.082;2023-07-29T12:14:36;99890.19;;;32.04;38.58
61014;BME280;46899;47.542;19.082;2023-07-29T12:17:40;99891.25;;;32.16;37.41
61014;BME280;46899;47.542;19.082;2023-07-29T12:20:43;99892.94;;;32.43;38.73
61014;BME280;46899;47.542;19.082;2023-07-29T12:23:45;99891.09;;;32.24;35.49
61014;BME280;46899;47.542;19.082;2023-07-29T12:26:48;99880.94;;;32.39;36.82
61014;BME280;46899;47.542;19.082;2023-07-29T12:29:51;99883.88;;;32.97;36.01
61014;BME280;46899;47.542;19.082;2023-07-29T12:32:54;99890.09;;;32.91;33.48
61014;BME280;46899;47.542;19.082;2023-07-29T12:35:56;99886.37;;;32.92;33.88
61014;BME280;46899;47.542;19.082;2023-07-29T12:38:59;99880.97;;;32.72;34.57
61014;BME280;46899;47.542;19.082;2023-07-29T12:42:02;99884.69;;;32.38;34.14
61014;BME280;46899;47.542;19.082;2023-07-29T12:45:05;99884.06;;;31.76;35.56
61014;BME280;46899;47.542;19.082;2023-07-29T12:48:08;99877.31;;;31.46;36.84
61014;BME280;46899;47.542;19.082;2023-07-29T12:51:11;99881.75;;;31.32;37.05
61014;BME280;46899;47.542;19.082;2023-07-29T12:54:13;99879.16;;;31.93;36.62
61014;BME280;46899;47.542;19.082;2023-07-29T12:57:16;99871.28;;;31.91;38.47
61014;BME280;46899;47.542;19.082;2023-07-29T13:00:18;99873.69;;;31.73;36.54
61014;BME280;46899;47.542;19.082;2023-07-29T13:03:21;99868.25;;;31.53;36.12
61014;BME280;46899;47.542;19.082;2023-07-29T13:06:24;99855.91;;;31.72;36.21
61014;BME280;46899;47.542;19.082;2023-07-29T13:09:26;99861.41;;;32.11;34.67
61014;BME280;46899;47.542;19.082;2023-07-29T13:12:29;99866.41;;;32.14;34.79
61014;BME280;46899;47.542;19.082;2023-07-29T13:15:31;99869.94;;;32.41;33.95
61014;BME280;46899;47.542;19.082;2023-07-29T13:18:34;99860.06;;;32.55;33.81
61014;BME280;46899;47.542;19.082;2023-07-29T13:21:36;99871.03;;;32.92;34.63
61014;BME280;46899;47.542;19.082;2023-07-29T13:24:39;99857.13;;;32.82;33.39
61014;BME280;46899;47.542;19.082;2023-07-29T13:27:41;99854.88;;;32.73;34.91
61014;BME280;46899;47.542;19.082;2023-07-29T13:30:44;99857.13;;;32.82;33.47
61014;BME280;46899;47.542;19.082;2023-07-29T13:33:47;99856.09;;;32.90;33.70
61014;BME280;46899;47.542;19.082;2023-07-29T13:36:50;99844.50;;;32.70;34.98
61014;BME280;46899;47.542;19.082;2023-07-29T13:39:52;99843.22;;;32.39;34.66
61014;BME280;46899;47.542;19.082;2023-07-29T13:42:55;99844.84;;;32.27;35.11
61014;BME280;46899;47.542;19.082;2023-07-29T13:45:57;99841.75;;;32.17;35.02
61014;BME280;46899;47.542;19.082;2023-07-29T13:49:00;99835.94;;;32.14;35.41
61014;BME280;46899;47.542;19.082;2023-07-29T13:52:03;99829.28;;;31.97;35.42
61014;BME280;46899;47.542;19.082;2023-07-29T13:55:06;99817.41;;;31.78;35.71
61014;BME280;46899;47.542;19.082;2023-07-29T13:58:08;99820.91;;;31.72;35.72
61014;BME280;46899;47.542;19.082;2023-07-29T14:01:11;99817.59;;;31.70;35.55
61014;BME280;46899;47.542;19.082;2023-07-29T14:04:13;99813.84;;;31.71;36.05
61014;BME280;46899;47.542;19.082;2023-07-29T14:07:16;99813.91;;;31.84;35.77
61014;BME280;46899;47.542;19.082;2023-07-29T14:10:19;99810.78;;;31.81;35.25
61014;BME280;46899;47.542;19.082;2023-07-29T14:13:21;99808.13;;;31.94;36.32
61014;BME280;46899;47.542;19.082;2023-07-29T14:16:24;99797.53;;;31.79;35.99
61014;BME280;46899;47.542;19.082;2023-07-29T14:19:26;99792.53;;;31.69;36.89
61014;BME280;46899;47.542;19.082;2023-07-29T14:22:29;99785.06;;;31.65;35.17
61014;BME280;46899;47.542;19.082;2023-07-29T14:25:31;99794.31;;;31.43;35.75
61014;BME280;46899;47.542;19.082;2023-07-29T14:28:35;99786.56;;;31.33;35.95
61014;BME280;46899;47.542;19.082;2023-07-29T14:31:38;99791.69;;;30.87;36.64
61014;BME280;46899;47.542;19.082;2023-07-29T14:34:40;99798.88;;;30.80;37.23
61014;BME280;46899;47.542;19.082;2023-07-29T14:37:43;99796.72;;;30.69;38.15
61014;BME280;46899;47.542;19.082;2023-07-29T14:40:47;99795.22;;;30.60;38.05
61014;BME280;46899;47.542;19.082;2023-07-29T14:43:50;99781.41;;;30.63;38.18
61014;BME280;46899;47.542;19.082;2023-07-29T14:46:53;99788.41;;;30.36;39.11
61014;BME280;46899;47.542;19.082;2023-07-29T14:49:57;99789.78;;;30.05;39.84
61014;BME280;46899;47.542;19.082;2023-07-29T14:52:59;99788.66;;;29.78;39.80
61014;BME280;46899;47.542;19.082;2023-07-29T14:56:02;99790.72;;;29.61;40.01
61014;BME280;46899;47.542;19.082;2023-07-29T14:59:04;99785.59;;;29.45;41.40
61014;BME280;46899;47.542;19.082;2023-07-29T15:02:07;99777.69;;;29.23;42.13
61014;BME280;46899;47.542;19.082;2023-07-29T15:05:09;99790.41;;;29.21;41.60
61014;BME280;46899;47.542;19.082;2023-07-29T15:08:12;99780.94;;;29.18;42.14
61014;BME280;46899;47.542;19.082;2023-07-29T15:11:15;99778.47;;;29.38;42.61
61014;BME280;46899;47.542;19.082;2023-07-29T15:14:17;99784.09;;;29.43;41.27
61014;BME280;46899;47.542;19.082;2023-07-29T15:17:20;99787.50;;;29.51;41.70
61014;BME280;46899;47.542;19.082;2023-07-29T15:20:22;99780.34;;;29.58;42.27
61014;BME280;46899;47.542;19.082;2023-07-29T15:23:25;99787.84;;;29.77;42.47
61014;BME280;46899;47.542;19.082;2023-07-29T15:26:27;99787.22;;;29.97;42.51
61014;BME280;46899;47.542;19.082;2023-07-29T15:29:30;99789.00;;;30.11;41.54
61014;BME280;46899;47.542;19.082;2023-07-29T15:32:34;99787.78;;;30.13;41.75
61014;BME280;46899;47.542;19.082;2023-07-29T15:35:37;99782.34;;;30.07;40.82
61014;BME280;46899;47.542;19.082;2023-07-29T15:38:41;99778.84;;;30.06;41.14
61014;BME280;46899;47.542;19.082;2023-07-29T15:41:44;99792.84;;;30.02;41.35
61014;BME280;46899;47.542;19.082;2023-07-29T15:44:46;99793.41;;;29.97;40.31
61014;BME280;46899;47.542;19.082;2023-07-29T15:47:49;99796.25;;;29.74;40.63
61014;BME280;46899;47.542;19.082;2023-07-29T15:50:51;99791.56;;;29.62;41.29
61014;BME280;46899;47.542;19.082;2023-07-29T15:53:54;99784.19;;;29.49;43.06
61014;BME280;46899;47.542;19.082;2023-07-29T15:56:56;99794.28;;;29.33;43.64
61014;BME280;46899;47.542;19.082;2023-07-29T15:59:59;99796.69;;;29.13;43.89
61014;BME280;46899;47.542;19.082;2023-07-29T16:03:01;99800.03;;;29.00;43.24
61014;BME280;46899;47.542;19.082;2023-07-29T16:06:04;99799.56;;;28.97;44.49